NCAR-RAP Real-Time Weather Data

Output produced by METARs form (08 May 2021  01:32 UTC)
found at http://weather.rap.ucar.edu/surface/
 
KLBF 080053Z AUTO 14013G20KT 10SM CLR 21/08 A2986 RMK AO2 SLP099 T02110078
KLBF 072353Z AUTO 12015G21KT 10SM CLR 23/08 A2987 RMK AO2 SLP104 T02280078 10244 20211 56018
KLBF 072253Z AUTO 13014G22KT 10SM CLR 23/08 A2988 RMK AO2 SLP105 T02330078
KLBF 072153Z AUTO 12017G24KT 10SM CLR 24/08 A2990 RMK AO2 SLP110 T02390078
KLBF 072053Z AUTO 14014G23KT 10SM CLR 23/08 A2993 RMK AO2 PK WND 10026/2002 SLP121 T02330078 56023
KLBF 071953Z AUTO 12013G25KT 10SM CLR 23/08 A2995 RMK AO2 SLP125 T02330078
KLBF 071853Z AUTO 14012G25KT 10SM CLR 22/07 A2997 RMK AO2 PK WND 09027/1823 SLP133 T02170072
KLBF 071753Z AUTO 12011G18KT 10SM CLR 21/07 A3000 RMK AO2 SLP145 T02110067 10211 20061 58016
KLBF 071653Z AUTO 14009KT 10SM CLR 19/07 A3002 RMK AO2 SLP156 T01940067
KLBF 071553Z AUTO 16010G18KT 10SM CLR 18/05 A3004 RMK AO2 SLP162 T01780050
KLBF 071453Z AUTO 14011G22KT 10SM CLR 17/04 A3005 RMK AO2 SLP168 T01670039 58014
KLBF 071353Z AUTO 13009KT 10SM CLR 13/04 A3008 RMK AO2 SLP176 T01330039
KLBF 071253Z AUTO 10007KT 10SM CLR 10/04 A3010 RMK AO2 SLP184 T01000039
KLBF 071153Z AUTO 10007KT 10SM CLR 06/02 A3010 RMK AO2 SLP185 T00610022 10117 20050 56008
KLBF 071053Z AUTO 07003KT 10SM CLR 07/02 A3010 RMK AO2 SLP186 T00670022